createdAt,value
2018-09-24T00:01:30.272Z,3.63
2018-09-24T00:03:59.091Z,3.17
2018-09-24T00:06:27.911Z,3.30
2018-09-24T00:08:56.739Z,2.90
2018-09-24T00:11:25.555Z,3.17
2018-09-24T00:13:54.380Z,3.13
2018-09-24T00:16:23.219Z,3.53
2018-09-24T00:18:52.052Z,2.93
2018-09-24T00:21:20.884Z,3.63
2018-09-24T00:23:49.713Z,3.20
2018-09-24T00:26:18.544Z,3.60
2018-09-24T00:28:47.363Z,3.10
2018-09-24T00:31:16.220Z,3.00
2018-09-24T00:33:45.050Z,2.50
2018-09-24T00:36:13.870Z,3.30
2018-09-24T00:38:42.683Z,3.20
2018-09-24T00:41:11.555Z,3.07
2018-09-24T00:43:40.380Z,3.17
2018-09-24T00:46:09.203Z,2.90
2018-09-24T00:48:38.027Z,3.10
2018-09-24T00:51:06.852Z,3.58
2018-09-24T00:53:35.653Z,2.80
2018-09-24T00:56:04.465Z,2.97
2018-09-24T00:58:33.290Z,2.77
2018-09-24T01:01:02.137Z,3.22
2018-09-24T01:03:30.987Z,2.40
2018-09-24T01:05:59.844Z,2.53
2018-09-24T01:08:28.692Z,2.67
2018-09-24T01:10:57.528Z,2.33
2018-09-24T01:13:26.332Z,2.73
2018-09-24T01:15:55.163Z,2.33
2018-09-24T01:18:24.032Z,2.37
2018-09-24T01:20:52.856Z,3.03
2018-09-24T01:23:21.663Z,2.10
2018-09-24T01:25:50.505Z,1.90
2018-09-24T01:28:19.332Z,2.37
2018-09-24T01:30:48.160Z,2.40
2018-09-24T01:33:16.979Z,2.60
2018-09-24T01:35:45.813Z,2.60
2018-09-24T01:38:14.673Z,2.33
2018-09-24T01:40:43.491Z,1.97
2018-09-24T01:43:12.318Z,3.10
2018-09-24T01:45:41.130Z,2.10
2018-09-24T01:48:09.970Z,2.17
2018-09-24T01:50:38.803Z,2.37
2018-09-24T01:53:08.272Z,2.40
2018-09-24T01:55:37.460Z,2.53
2018-09-24T01:58:06.328Z,2.27
2018-09-24T02:00:35.132Z,2.10
2018-09-24T02:03:04.010Z,2.63
2018-09-24T02:05:32.839Z,2.00
2018-09-24T02:08:01.665Z,2.43
2018-09-24T02:10:30.500Z,2.30
2018-09-24T02:12:59.333Z,2.57
2018-09-24T02:15:30.217Z,2.23
2018-09-24T02:17:59.073Z,2.30
2018-09-24T02:20:27.998Z,2.80
2018-09-24T02:22:56.825Z,2.07
2018-09-24T02:25:25.653Z,2.07
2018-09-24T02:27:54.459Z,2.60
2018-09-24T02:30:23.299Z,2.43
2018-09-24T02:32:52.128Z,2.00
2018-09-24T02:35:20.980Z,1.97
2018-09-24T02:37:49.796Z,2.13
2018-09-24T02:40:25.294Z,2.03
2018-09-24T02:42:54.125Z,2.53
2018-09-24T02:45:22.961Z,2.17
2018-09-24T02:47:51.774Z,2.27
2018-09-24T02:50:20.599Z,2.10
2018-09-24T02:52:49.444Z,2.67
2018-09-24T02:55:19.049Z,2.50
2018-09-24T02:57:47.878Z,2.17
2018-09-24T03:00:20.407Z,2.03
2018-09-24T03:02:49.266Z,1.77
2018-09-24T03:05:18.125Z,2.17
2018-09-24T03:07:46.973Z,2.55
2018-09-24T03:10:15.892Z,2.30
2018-09-24T03:12:50.199Z,2.00
2018-09-24T03:15:19.131Z,1.70
2018-09-24T03:17:48.006Z,2.00
2018-09-24T03:20:16.813Z,2.40
2018-09-24T03:22:45.631Z,1.90
2018-09-24T03:25:17.910Z,2.00
2018-09-24T03:27:46.931Z,1.90
2018-09-24T03:30:15.996Z,2.20
2018-09-24T03:32:44.844Z,2.23
2018-09-24T03:35:13.660Z,1.80
2018-09-24T03:37:42.510Z,2.40
2018-09-24T03:40:11.320Z,2.03
2018-09-24T03:42:40.173Z,1.97
2018-09-24T03:45:08.986Z,2.00
2018-09-24T03:47:37.798Z,1.83
2018-09-24T03:50:06.686Z,1.47
2018-09-24T03:52:35.508Z,1.70
2018-09-24T03:55:04.360Z,1.87
2018-09-24T03:57:33.199Z,2.27
2018-09-24T04:00:02.167Z,2.10
2018-09-24T04:02:31.006Z,1.70
2018-09-24T04:05:17.965Z,1.77
2018-09-24T04:08:04.439Z,2.50
2018-09-24T04:10:51.186Z,2.03
2018-09-24T04:13:37.533Z,2.20
2018-09-24T04:16:24.319Z,2.40
2018-09-24T04:19:10.691Z,1.90
2018-09-24T04:21:57.181Z,2.03
2018-09-24T04:24:43.984Z,2.03
2018-09-24T04:27:30.556Z,2.17
2018-09-24T04:30:17.305Z,2.10
2018-09-24T04:33:03.860Z,2.30
2018-09-24T04:35:50.211Z,2.60
2018-09-24T04:38:36.956Z,2.37
2018-09-24T04:41:23.515Z,2.00
2018-09-24T04:44:09.973Z,1.60
2018-09-24T04:46:56.708Z,2.77
2018-09-24T04:49:43.271Z,2.60
2018-09-24T04:52:30.083Z,2.07
2018-09-24T04:55:16.760Z,1.97
2018-09-24T04:58:03.425Z,1.93
2018-09-24T05:00:50.073Z,2.70
2018-09-24T05:03:36.946Z,2.30
2018-09-24T05:06:23.611Z,2.50
2018-09-24T05:09:10.155Z,2.00
2018-09-24T05:11:57.028Z,1.90
2018-09-24T05:14:43.750Z,1.70
2018-09-24T05:17:30.565Z,2.00
2018-09-24T05:20:17.192Z,2.20
2018-09-24T05:23:03.500Z,2.17
2018-09-24T05:25:50.246Z,2.10
2018-09-24T05:28:36.867Z,2.00
2018-09-24T05:31:23.659Z,2.30
2018-09-24T05:34:10.010Z,2.17
2018-09-24T05:36:56.557Z,2.40
2018-09-24T05:39:43.021Z,2.17
2018-09-24T05:42:29.396Z,2.47
2018-09-24T05:45:15.911Z,2.40
2018-09-24T05:48:02.988Z,2.50
2018-09-24T05:50:49.572Z,1.77
2018-09-24T05:53:36.038Z,2.33
2018-09-24T05:56:22.836Z,2.10
2018-09-24T05:59:09.567Z,2.27
2018-09-24T06:01:56.102Z,2.13
2018-09-24T06:04:43.128Z,2.13
2018-09-24T06:07:29.401Z,2.47
2018-09-24T06:10:16.003Z,2.70
2018-09-24T06:13:02.992Z,2.50
2018-09-24T06:15:49.538Z,3.00
2018-09-24T06:18:36.418Z,2.13
2018-09-24T06:21:23.296Z,2.03
2018-09-24T06:24:09.646Z,2.20
2018-09-24T06:26:56.394Z,2.00
2018-09-24T06:29:42.818Z,2.20
2018-09-24T06:32:29.153Z,1.90
2018-09-24T06:35:15.733Z,2.07
2018-09-24T06:38:02.293Z,2.40
2018-09-24T06:40:49.347Z,2.40
2018-09-24T06:43:35.880Z,2.13
2018-09-24T06:46:22.251Z,2.13
2018-09-24T06:49:09.219Z,2.50
2018-09-24T06:51:55.975Z,2.30
2018-09-24T06:54:42.334Z,2.10
2018-09-24T06:57:29.320Z,2.03
2018-09-24T07:00:15.869Z,2.33
2018-09-24T07:03:02.703Z,1.80
2018-09-24T07:05:49.696Z,2.75
2018-09-24T07:08:36.530Z,2.67
2018-09-24T07:11:22.982Z,2.03
2018-09-24T07:14:09.806Z,2.03
2018-09-24T07:16:56.120Z,1.90
2018-09-24T07:19:42.915Z,2.10
2018-09-24T07:22:29.422Z,2.10
2018-09-24T07:25:15.953Z,1.83
2018-09-24T07:28:02.692Z,2.10
2018-09-24T07:30:49.272Z,1.60
2018-09-24T07:33:35.782Z,2.10
2018-09-24T07:36:22.355Z,2.03
2018-09-24T07:39:08.942Z,1.60
2018-09-24T07:41:55.328Z,1.93
2018-09-24T07:44:42.183Z,1.97
2018-09-24T07:47:28.822Z,2.03
2018-09-24T07:50:15.179Z,1.90
2018-09-24T07:53:01.988Z,2.27
2018-09-24T07:55:48.633Z,2.00
2018-09-24T07:58:35.597Z,1.40
2018-09-24T08:01:22.498Z,2.40
2018-09-24T08:04:09.125Z,1.90
2018-09-24T08:06:55.520Z,1.60
2018-09-24T08:09:42.315Z,1.50
2018-09-24T08:12:28.865Z,1.50
2018-09-24T08:15:15.697Z,1.90
2018-09-24T08:18:02.022Z,1.27
2018-09-24T08:20:48.331Z,1.60
2018-09-24T08:23:35.203Z,1.40
2018-09-24T08:26:21.957Z,1.30
2018-09-24T08:29:08.569Z,1.67
2018-09-24T08:31:55.623Z,1.40
2018-09-24T08:34:42.438Z,1.33
2018-09-24T08:37:29.270Z,1.70
2018-09-24T08:40:15.911Z,1.53
2018-09-24T08:43:02.421Z,1.40
2018-09-24T08:45:48.910Z,1.60
2018-09-24T08:48:35.957Z,1.50
2018-09-24T08:51:22.859Z,1.67
2018-09-24T08:54:09.723Z,1.20
2018-09-24T08:57:15.298Z,1.40
2018-09-24T09:00:02.165Z,1.50
2018-09-24T09:02:49.333Z,1.40
2018-09-24T09:05:36.139Z,1.70
2018-09-24T09:08:23.036Z,1.40
2018-09-24T09:11:09.843Z,1.20
2018-09-24T09:13:56.482Z,1.57
2018-09-24T09:16:42.967Z,1.57
2018-09-24T09:19:29.865Z,1.40
2018-09-24T09:22:16.687Z,1.40
2018-09-24T09:25:03.237Z,1.50
2018-09-24T09:27:50.003Z,1.40
2018-09-24T09:30:36.765Z,1.30
2018-09-24T09:33:23.797Z,1.73
2018-09-24T09:36:10.607Z,1.82
2018-09-24T09:38:56.875Z,3.77
2018-09-24T09:41:43.365Z,4.43
2018-09-24T09:44:30.205Z,5.07
2018-09-24T09:47:16.529Z,2.60
2018-09-24T09:50:03.420Z,3.00
2018-09-24T09:52:50.102Z,2.47
2018-09-24T09:55:36.767Z,3.12
2018-09-24T09:58:23.324Z,4.42
2018-09-24T10:01:11.365Z,7.03
2018-09-24T10:03:59.037Z,2.75
2018-09-24T10:06:47.047Z,1.80
2018-09-24T10:09:34.534Z,1.82
2018-09-24T10:12:21.928Z,1.90
2018-09-24T10:15:11.094Z,1.72
2018-09-24T10:17:57.884Z,1.55
2018-09-24T10:20:45.504Z,1.57
2018-09-24T10:23:33.925Z,1.80
2018-09-24T10:26:21.418Z,1.75
2018-09-24T10:29:07.984Z,1.50
2018-09-24T10:31:55.739Z,1.47
2018-09-24T10:34:43.586Z,1.50
2018-09-24T10:37:30.196Z,1.57
2018-09-24T10:40:16.521Z,1.77
2018-09-24T10:43:03.529Z,1.75
2018-09-24T10:45:50.082Z,1.60
2018-09-24T10:48:36.837Z,1.65
2018-09-24T10:51:23.439Z,1.52
2018-09-24T10:54:10.092Z,1.90
2018-09-24T10:56:56.585Z,1.67
2018-09-24T10:59:43.252Z,1.52
2018-09-24T11:02:29.821Z,1.65
2018-09-24T11:05:16.451Z,2.00
2018-09-24T11:08:02.856Z,2.00
2018-09-24T11:10:49.564Z,1.80
2018-09-24T11:13:35.887Z,1.75
2018-09-24T11:16:23.085Z,2.00
2018-09-24T11:19:09.592Z,1.50
2018-09-24T11:21:56.376Z,2.20
2018-09-24T11:24:43.192Z,1.77
2018-09-24T11:27:29.999Z,2.10
2018-09-24T11:30:16.648Z,2.00
2018-09-24T11:33:03.097Z,1.90
2018-09-24T11:35:49.739Z,1.77
2018-09-24T11:38:36.288Z,1.50
2018-09-24T11:41:23.073Z,2.08
2018-09-24T11:44:09.654Z,1.70
2018-09-24T11:46:56.225Z,1.77
2018-09-24T11:49:42.907Z,2.00
2018-09-24T11:52:29.526Z,1.72
2018-09-24T11:55:16.152Z,1.65
2018-09-24T11:58:02.433Z,1.27
2018-09-24T12:00:49.078Z,1.63
2018-09-24T12:03:35.629Z,1.50
2018-09-24T12:06:22.477Z,1.60
2018-09-24T12:09:09.007Z,1.60
2018-09-24T12:11:55.612Z,1.37
2018-09-24T12:14:42.233Z,1.47
2018-09-24T12:17:29.027Z,1.87
2018-09-24T12:20:15.890Z,1.73
2018-09-24T12:23:02.568Z,1.20
2018-09-24T12:25:49.609Z,2.00
2018-09-24T12:28:35.879Z,1.45
2018-09-24T12:31:22.601Z,1.83
2018-09-24T12:34:09.489Z,2.40
2018-09-24T12:36:55.914Z,1.90
2018-09-24T12:39:42.280Z,1.97
2018-09-24T12:42:28.828Z,1.97
2018-09-24T12:45:15.576Z,2.07
2018-09-24T12:48:02.202Z,1.77
2018-09-24T12:50:48.974Z,1.80
2018-09-24T12:53:35.750Z,1.90
2018-09-24T12:56:22.198Z,2.20
2018-09-24T12:59:08.808Z,1.77
2018-09-24T13:01:55.492Z,1.90
2018-09-24T13:04:42.268Z,1.97
2018-09-24T13:07:28.771Z,1.90
2018-09-24T13:10:15.712Z,1.70
2018-09-24T13:13:02.407Z,2.30
2018-09-24T13:15:48.999Z,2.43
2018-09-24T13:18:35.781Z,2.40
2018-09-24T13:21:22.205Z,2.50
2018-09-24T13:24:08.871Z,1.90
2018-09-24T13:26:55.467Z,2.47
2018-09-24T13:29:42.036Z,2.00
2018-09-24T13:32:28.630Z,1.97
2018-09-24T13:35:15.334Z,2.03
2018-09-24T13:38:01.982Z,1.93
2018-09-24T13:40:48.738Z,2.00
2018-09-24T13:43:35.762Z,2.50
2018-09-24T13:46:22.497Z,1.73
2018-09-24T13:49:09.274Z,1.73
2018-09-24T13:51:56.077Z,1.40
2018-09-24T13:54:42.634Z,1.63
2018-09-24T13:57:29.404Z,1.50
2018-09-24T14:00:16.169Z,1.60
2018-09-24T14:03:03.090Z,1.63
2018-09-24T14:05:49.591Z,1.87
2018-09-24T14:08:35.914Z,1.70
2018-09-24T14:11:22.456Z,1.60
2018-09-24T14:14:09.004Z,1.70
2018-09-24T14:16:55.549Z,1.77
2018-09-24T14:19:41.959Z,2.07
2018-09-24T14:22:28.411Z,1.97
2018-09-24T14:25:14.985Z,2.40
2018-09-24T14:28:01.945Z,2.33
2018-09-24T14:30:48.296Z,2.53
2018-09-24T14:33:34.871Z,2.10
2018-09-24T14:36:21.404Z,2.67
2018-09-24T14:39:07.749Z,1.90
2018-09-24T14:41:54.359Z,1.97
2018-09-24T14:44:41.340Z,2.00
2018-09-24T14:47:27.912Z,1.97
2018-09-24T14:50:14.811Z,2.17
2018-09-24T14:53:01.787Z,2.10
2018-09-24T14:55:48.304Z,2.20
2018-09-24T14:58:35.159Z,1.70
2018-09-24T15:01:21.971Z,1.93
2018-09-24T15:04:08.613Z,1.93
2018-09-24T15:06:55.164Z,2.00
2018-09-24T15:09:42.005Z,1.90
2018-09-24T15:12:28.652Z,1.40
2018-09-24T15:15:15.177Z,1.70
2018-09-24T15:18:01.538Z,2.27
2018-09-24T15:20:48.344Z,1.53
2018-09-24T15:23:34.677Z,1.80
2018-09-24T15:26:21.110Z,1.87
2018-09-24T15:29:07.685Z,1.83
2018-09-24T15:31:54.512Z,1.87
2018-09-24T15:34:41.288Z,1.53
2018-09-24T15:37:27.679Z,1.30
2018-09-24T15:40:14.046Z,1.50
2018-09-24T15:43:00.897Z,1.57
2018-09-24T15:45:47.281Z,1.60
2018-09-24T15:48:33.627Z,1.77
2018-09-24T15:51:20.282Z,1.50
2018-09-24T15:54:07.078Z,1.37
2018-09-24T15:56:53.716Z,1.47
2018-09-24T15:59:40.501Z,1.40
2018-09-24T16:02:27.219Z,1.30
2018-09-24T16:05:13.792Z,1.50
2018-09-24T16:08:00.398Z,1.53
2018-09-24T16:10:46.865Z,1.73
2018-09-24T16:13:33.714Z,1.80
2018-09-24T16:16:20.535Z,1.53
2018-09-24T16:19:07.171Z,1.90
2018-09-24T16:21:53.872Z,2.33
2018-09-24T16:24:40.559Z,1.67
2018-09-24T16:27:27.039Z,1.90
2018-09-24T16:30:13.760Z,2.03
2018-09-24T16:33:00.582Z,2.03
2018-09-24T16:35:47.247Z,1.90
2018-09-24T16:38:33.769Z,1.83
2018-09-24T16:41:20.081Z,1.70
2018-09-24T16:44:06.705Z,1.60
2018-09-24T16:46:53.060Z,1.67
2018-09-24T16:49:39.574Z,1.67
2018-09-24T16:52:26.347Z,1.70
2018-09-24T16:55:12.959Z,1.90
2018-09-24T16:57:59.594Z,1.43
2018-09-24T17:00:45.958Z,1.93
2018-09-24T17:03:32.752Z,1.80
2018-09-24T17:06:19.165Z,1.57
2018-09-24T17:09:06.218Z,1.87
2018-09-24T17:11:52.709Z,2.23
2018-09-24T17:14:39.311Z,1.50
2018-09-24T17:17:26.231Z,2.00
2018-09-24T17:20:12.728Z,1.80
2018-09-24T17:22:59.176Z,1.87
2018-09-24T17:25:45.742Z,1.70
2018-09-24T17:28:32.647Z,1.70
2018-09-24T17:31:19.173Z,1.57
2018-09-24T17:34:05.695Z,1.30
2018-09-24T17:36:52.398Z,1.60
2018-09-24T17:39:39.195Z,1.93
2018-09-24T17:42:25.648Z,1.43
2018-09-24T17:45:12.242Z,1.50
2018-09-24T17:47:58.571Z,1.83
2018-09-24T17:50:45.110Z,1.47
2018-09-24T17:53:31.793Z,1.77
2018-09-24T17:56:18.292Z,1.83
2018-09-24T17:59:04.632Z,1.50
2018-09-24T18:01:51.345Z,2.00
2018-09-24T18:04:38.096Z,1.63
2018-09-24T18:07:24.675Z,1.80
2018-09-24T18:10:11.205Z,1.70
2018-09-24T18:12:57.979Z,1.70
2018-09-24T18:15:44.549Z,1.73
2018-09-24T18:18:31.216Z,1.87
2018-09-24T18:21:17.687Z,1.33
2018-09-24T18:24:04.327Z,1.67
2018-09-24T18:26:50.732Z,1.97
2018-09-24T18:29:37.275Z,2.03
2018-09-24T18:32:23.876Z,2.10
2018-09-24T18:35:10.772Z,1.72
2018-09-24T18:37:57.686Z,2.00
2018-09-24T18:40:44.406Z,1.60
2018-09-24T18:43:31.157Z,1.53
2018-09-24T18:46:17.481Z,1.57
2018-09-24T18:49:03.875Z,1.60
2018-09-24T18:51:50.267Z,2.02
2018-09-24T18:54:37.050Z,2.10
2018-09-24T18:57:23.877Z,1.93
2018-09-24T19:00:10.402Z,1.60
2018-09-24T19:02:57.067Z,1.63
2018-09-24T19:05:43.690Z,1.60
2018-09-24T19:08:30.517Z,1.77
2018-09-24T19:11:27.645Z,1.80
2018-09-24T19:14:03.780Z,1.90
2018-09-24T19:16:50.134Z,2.00
2018-09-24T19:19:36.415Z,1.60
2018-09-24T19:22:22.756Z,1.40
2018-09-24T19:25:09.303Z,1.57
2018-09-24T19:27:55.614Z,1.70
2018-09-24T19:30:42.384Z,1.90
2018-09-24T19:33:29.274Z,2.10
2018-09-24T19:36:16.110Z,1.37
2018-09-24T19:39:02.898Z,1.92
2018-09-24T19:41:49.852Z,1.70
2018-09-24T19:44:36.645Z,1.80
2018-09-24T19:47:23.289Z,1.93
2018-09-24T19:50:10.184Z,2.37
2018-09-24T19:52:56.770Z,1.80
2018-09-24T19:55:43.269Z,2.10
2018-09-24T19:58:29.773Z,2.37
2018-09-24T20:01:16.697Z,2.00
2018-09-24T20:04:03.083Z,1.90
2018-09-24T20:06:49.700Z,1.57
2018-09-24T20:09:36.169Z,1.87
2018-09-24T20:12:22.988Z,1.90
2018-09-24T20:15:09.717Z,2.23
2018-09-24T20:17:56.701Z,2.40
2018-09-24T20:20:43.443Z,1.80
2018-09-24T20:23:29.816Z,2.40
2018-09-24T20:26:16.342Z,2.23
2018-09-24T20:29:02.963Z,2.60
2018-09-24T20:31:49.429Z,2.33
2018-09-24T20:34:35.809Z,2.60
2018-09-24T20:37:22.524Z,2.40
2018-09-24T20:40:09.010Z,2.23
2018-09-24T20:42:56.010Z,2.50
2018-09-24T20:45:42.803Z,2.20
2018-09-24T20:48:29.276Z,2.33
2018-09-24T20:51:16.342Z,2.23
2018-09-24T20:54:02.949Z,2.30
2018-09-24T20:56:49.362Z,1.43
2018-09-24T20:59:35.724Z,1.90
2018-09-24T21:02:22.209Z,1.67
2018-09-24T21:05:08.525Z,1.77
2018-09-24T21:07:54.876Z,2.02
2018-09-24T21:10:41.525Z,1.70
2018-09-24T21:13:28.288Z,1.90
2018-09-24T21:16:15.195Z,2.30
2018-09-24T21:19:02.086Z,1.83
2018-09-24T21:21:48.420Z,2.30
2018-09-24T21:24:34.922Z,2.03
2018-09-24T21:27:21.735Z,2.30
2018-09-24T21:30:08.082Z,2.20
2018-09-24T21:32:54.863Z,2.70
2018-09-24T21:35:41.355Z,2.30
2018-09-24T21:38:28.174Z,2.70
2018-09-24T21:41:14.486Z,2.50
2018-09-24T21:44:01.146Z,2.50
2018-09-24T21:46:47.572Z,2.50
2018-09-24T21:49:34.309Z,2.17
2018-09-24T21:52:21.339Z,2.37
2018-09-24T21:55:07.609Z,2.97
2018-09-24T21:57:54.324Z,2.13
2018-09-24T22:00:41.439Z,2.60
2018-09-24T22:03:28.252Z,2.87
2018-09-24T22:06:14.697Z,2.70
2018-09-24T22:09:01.257Z,2.20
2018-09-24T22:11:47.683Z,2.73
2018-09-24T22:14:34.469Z,2.37
2018-09-24T22:17:20.764Z,2.97
2018-09-24T22:20:07.149Z,2.87
2018-09-24T22:22:53.906Z,3.05
2018-09-24T22:25:40.691Z,2.87
2018-09-24T22:28:27.060Z,3.13
2018-09-24T22:31:13.371Z,3.22
2018-09-24T22:33:59.948Z,3.17
2018-09-24T22:36:46.290Z,2.70
2018-09-24T22:39:33.132Z,2.50
2018-09-24T22:42:19.712Z,2.37
2018-09-24T22:45:06.519Z,2.70
2018-09-24T22:47:53.233Z,2.90
2018-09-24T22:50:40.069Z,2.90
2018-09-24T22:53:26.643Z,2.90
2018-09-24T22:56:13.450Z,2.73
2018-09-24T22:58:59.883Z,2.20
2018-09-24T23:01:46.629Z,2.60
2018-09-24T23:04:32.997Z,2.97
2018-09-24T23:07:19.867Z,2.97
2018-09-24T23:10:06.266Z,2.40
2018-09-24T23:12:53.031Z,2.80
2018-09-24T23:15:39.711Z,2.50
2018-09-24T23:18:26.059Z,2.10
2018-09-24T23:21:12.704Z,3.70
2018-09-24T23:23:59.224Z,2.50
2018-09-24T23:26:45.598Z,2.20
2018-09-24T23:29:32.004Z,2.30
2018-09-24T23:32:18.704Z,2.73
2018-09-24T23:35:05.180Z,2.97
2018-09-24T23:37:51.791Z,3.13
2018-09-24T23:40:38.600Z,2.60
2018-09-24T23:43:25.234Z,2.70
2018-09-24T23:46:12.050Z,2.90
2018-09-24T23:48:58.407Z,2.67
2018-09-24T23:51:45.413Z,2.43
2018-09-24T23:54:32.205Z,2.60
2018-09-24T23:57:18.979Z,2.40
